Terminal Aerodrome Forecast
Issued by NWS

Home | Current Version | Previous Version | Text Only | Print | Product List | Glossary On
Versions: 1 2 3 4 5 6 7 8 9 10 11 12 13
000
FTUS43 KICT 281721
TAFRSL
TAF
KRSL 281721Z 2818/2918 34011KT P6SM SCT035
     FM282100 36013G19KT P6SM BKN050
     FM290800 35009KT P6SM SKC=

USA.gov is the U.S. government's official web portal to all federal, state and local government web resources and services.